Time;durP1;ratioP1;P1;durP2;ratioP2;P2;SDS_P1;SDS_P2;PMS_P1;PMS_P2;Temp;Humidity;BMP_temperature;BMP_pressure;BME280_temperature;BME280_humidity;BME280_pressure;Samples;Min_cycle;Max_cycle;Signal;HPM_P1;HPM_P2
2023/06/15 00:00:24;;;;;;;;;;;18.30;45.60;;;;;;5073093;28;20003;-69
2023/06/15 00:02:50;;;;;;;;;;;18.20;46.00;;;;;;5072890;28;19912;-68
2023/06/15 00:05:16;;;;;;;;;;;18.20;45.90;;;;;;5072925;28;20013;-65
2023/06/15 00:07:42;;;;;;;;;;;18.20;45.90;;;;;;5073206;28;19917;-69
2023/06/15 00:10:08;;;;;;;;;;;18.20;46.70;;;;;;5072931;28;19919;-69
2023/06/15 00:12:33;;;;;;;;;;;18.20;47.60;;;;;;5057884;28;20292;-69
2023/06/15 00:14:59;;;;;;;;;;;18.20;47.20;;;;;;5051844;28;19912;-69
2023/06/15 00:17:25;;;;;;;;;;;18.30;47.50;;;;;;5053049;28;20432;-69
2023/06/15 00:19:50;;;;;;;;;;;18.20;47.60;;;;;;5052473;28;20368;-69
2023/06/15 00:22:16;;;;;;;;;;;18.20;47.50;;;;;;5052700;28;19920;-69
2023/06/15 00:24:47;;;;;;;;;;;18.20;47.20;;;;;;5052888;28;19912;-69
2023/06/15 00:27:13;;;;;;;;;;;18.10;47.20;;;;;;5052438;28;20000;-69
2023/06/15 00:29:38;;;;;;;;;;;18.00;47.10;;;;;;5052400;28;19959;-68
2023/06/15 00:32:04;;;;;;;;;;;18.00;47.10;;;;;;5066043;28;19913;-68
2023/06/15 00:34:32;;;;;;;;;;;18.00;47.10;;;;;;5054739;28;19913;-68
2023/06/15 00:36:58;;;;;;;;;;;17.90;47.40;;;;;;5052076;28;19943;-69
2023/06/15 00:39:23;;;;;;;;;;;17.90;47.90;;;;;;5052343;28;19909;-68
2023/06/15 00:41:48;;;;;;;;;;;17.80;47.90;;;;;;5052279;28;20292;-69
2023/06/15 00:44:14;;;;;;;;;;;17.80;47.90;;;;;;5052454;28;19923;-69
2023/06/15 00:46:39;;;;;;;;;;;17.70;47.90;;;;;;5052014;28;19916;-69
2023/06/15 00:49:06;;;;;;;;;;;17.70;47.80;;;;;;5051933;28;20467;-68
2023/06/15 00:51:32;;;;;;;;;;;17.60;47.80;;;;;;5045241;28;20363;-67
2023/06/15 00:53:58;;;;;;;;;;;17.50;47.80;;;;;;5032123;28;19913;-68
2023/06/15 00:56:23;;;;;;;;;;;17.50;47.80;;;;;;5032236;28;20284;-68
2023/06/15 00:58:49;;;;;;;;;;;17.40;47.90;;;;;;5032085;28;19909;-69
2023/06/15 01:01:14;;;;;;;;;;;17.30;47.80;;;;;;5032148;28;19975;-75
2023/06/15 01:03:40;;;;;;;;;;;17.30;47.90;;;;;;5032151;28;19920;-76
2023/06/15 01:06:13;;;;;;;;;;;17.30;48.00;;;;;;5031841;28;19959;-76
2023/06/15 01:08:40;;;;;;;;;;;17.20;48.00;;;;;;5013971;28;19913;-76
2023/06/15 01:11:05;;;;;;;;;;;17.20;48.20;;;;;;5031633;28;20004;-76
2023/06/15 01:13:31;;;;;;;;;;;17.10;48.20;;;;;;5031819;28;20352;-76
2023/06/15 01:15:58;;;;;;;;;;;17.10;48.40;;;;;;5031528;28;19923;-76
2023/06/15 01:18:24;;;;;;;;;;;17.00;48.80;;;;;;5031695;28;19916;-76
2023/06/15 01:20:53;;;;;;;;;;;17.00;49.00;;;;;;5031816;28;19993;-76
2023/06/15 01:23:31;;;;;;;;;;;16.90;49.20;;;;;;5031604;28;20296;-76
2023/06/15 01:26:00;;;;;;;;;;;16.90;49.90;;;;;;5031332;28;20320;-75
2023/06/15 01:28:26;;;;;;;;;;;16.90;50.00;;;;;;5041593;28;19915;-76
2023/06/15 01:30:52;;;;;;;;;;;16.90;49.90;;;;;;5055192;28;20368;-76
2023/06/15 01:33:18;;;;;;;;;;;16.80;49.90;;;;;;5071454;28;19908;-76
2023/06/15 01:35:43;;;;;;;;;;;16.80;50.00;;;;;;5071604;28;20418;-77
2023/06/15 01:38:10;;;;;;;;;;;16.70;49.90;;;;;;5071126;28;20364;-77
2023/06/15 01:40:40;;;;;;;;;;;16.70;49.90;;;;;;5071283;28;19923;-77
2023/06/15 01:43:07;;;;;;;;;;;16.70;49.90;;;;;;5070942;28;19948;-77
2023/06/15 01:45:34;;;;;;;;;;;16.70;49.90;;;;;;5071238;28;20014;-75
2023/06/15 01:47:59;;;;;;;;;;;16.70;49.90;;;;;;5071037;28;20371;-76
2023/06/15 01:50:25;;;;;;;;;;;16.70;49.90;;;;;;5053610;28;19916;-75
2023/06/15 01:52:50;;;;;;;;;;;16.60;49.90;;;;;;5071480;28;19913;-77
2023/06/15 01:55:16;;;;;;;;;;;16.60;50.70;;;;;;5071138;28;19966;-76
2023/06/15 01:57:41;;;;;;;;;;;16.50;51.70;;;;;;5071399;28;19917;-76
2023/06/15 02:00:08;;;;;;;;;;;16.50;52.10;;;;;;5071065;28;19909;-77
2023/06/15 02:02:34;;;;;;;;;;;16.40;51.80;;;;;;5070740;28;20288;-76
2023/06/15 02:04:59;;;;;;;;;;;16.40;51.60;;;;;;5071061;28;19909;-76
2023/06/15 02:07:25;;;;;;;;;;;16.30;51.80;;;;;;5071832;28;19923;-77
2023/06/15 02:09:51;;;;;;;;;;;16.30;51.50;;;;;;5069724;28;19913;-79
2023/06/15 02:12:17;;;;;;;;;;;16.30;51.40;;;;;;5071289;28;19952;-77
2023/06/15 02:14:42;;;;;;;;;;;16.20;51.40;;;;;;5070959;28;19959;-77
2023/06/15 02:17:08;;;;;;;;;;;16.20;51.40;;;;;;5071160;28;19917;-77
2023/06/15 02:19:33;;;;;;;;;;;16.20;51.40;;;;;;5070904;28;19909;-77
2023/06/15 02:21:59;;;;;;;;;;;16.20;51.30;;;;;;5070926;28;20288;-75
2023/06/15 02:24:24;;;;;;;;;;;16.00;51.20;;;;;;5071264;28;19908;-77
2023/06/15 02:26:49;;;;;;;;;;;16.00;51.20;;;;;;5071137;28;19934;-77
2023/06/15 02:29:15;;;;;;;;;;;16.00;51.20;;;;;;5053692;28;19909;-78
2023/06/15 02:31:40;;;;;;;;;;;15.90;51.30;;;;;;5061279;28;20011;-77
2023/06/15 02:34:06;;;;;;;;;;;15.90;51.40;;;;;;5070928;28;19966;-77
2023/06/15 02:36:31;;;;;;;;;;;15.90;51.60;;;;;;5071043;28;19959;-76
2023/06/15 02:38:58;;;;;;;;;;;15.90;51.70;;;;;;5040418;28;19923;-76
2023/06/15 02:41:23;;;;;;;;;;;15.90;51.70;;;;;;5034839;28;19921;-77
2023/06/15 02:43:49;;;;;;;;;;;15.90;51.60;;;;;;5034189;28;19971;-77
2023/06/15 02:46:15;;;;;;;;;;;15.90;51.70;;;;;;5034308;28;19918;-77
2023/06/15 02:48:41;;;;;;;;;;;15.90;51.70;;;;;;5034552;28;19910;-76
2023/06/15 02:51:06;;;;;;;;;;;16.00;52.00;;;;;;5034435;28;19924;-77
2023/06/15 02:53:31;;;;;;;;;;;16.00;52.20;;;;;;5016804;28;19909;-77
2023/06/15 02:55:57;;;;;;;;;;;16.00;52.00;;;;;;5049655;28;19917;-77
2023/06/15 02:58:24;;;;;;;;;;;16.00;52.10;;;;;;5051835;28;20149;-77
2023/06/15 03:00:50;;;;;;;;;;;16.00;52.00;;;;;;5053378;28;20331;-77
2023/06/15 03:03:26;;;;;;;;;;;16.00;52.00;;;;;;5052365;28;19916;-77
2023/06/15 03:05:52;;;;;;;;;;;16.00;52.00;;;;;;5033459;28;19979;-77
2023/06/15 03:08:18;;;;;;;;;;;16.00;52.00;;;;;;5033130;28;20387;-77
2023/06/15 03:10:44;;;;;;;;;;;16.10;52.10;;;;;;5053927;28;20280;-77
2023/06/15 03:13:10;;;;;;;;;;;16.10;52.10;;;;;;5053842;28;19909;-77
2023/06/15 03:15:36;;;;;;;;;;;16.10;52.20;;;;;;5053878;28;19932;-76
2023/06/15 03:18:03;;;;;;;;;;;16.10;52.30;;;;;;5034382;28;19913;-77
2023/06/15 03:20:32;;;;;;;;;;;16.10;53.20;;;;;;5033875;28;20360;-77
2023/06/15 03:22:58;;;;;;;;;;;16.10;53.10;;;;;;5033586;28;19979;-77
2023/06/15 03:25:23;;;;;;;;;;;16.10;52.90;;;;;;5046136;28;19912;-77
2023/06/15 03:27:52;;;;;;;;;;;16.10;52.80;;;;;;5053558;28;19999;-77
2023/06/15 03:30:18;;;;;;;;;;;16.10;52.70;;;;;;5053504;28;19909;-77
2023/06/15 03:32:46;;;;;;;;;;;16.10;52.80;;;;;;5053716;28;19913;-77
2023/06/15 03:35:12;;;;;;;;;;;16.10;53.00;;;;;;5053561;28;19940;-77
2023/06/15 03:37:38;;;;;;;;;;;16.20;53.10;;;;;;5054039;28;20005;-77
2023/06/15 03:40:05;;;;;;;;;;;16.20;53.50;;;;;;5053657;28;19912;-77
2023/06/15 03:42:30;;;;;;;;;;;16.30;53.80;;;;;;5035349;28;19940;-77
2023/06/15 03:44:56;;;;;;;;;;;16.50;53.80;;;;;;5053236;28;19921;-77
2023/06/15 03:47:21;;;;;;;;;;;16.70;53.70;;;;;;5053425;28;19916;-75
2023/06/15 03:49:47;;;;;;;;;;;16.90;53.70;;;;;;5051968;28;19909;-76
2023/06/15 03:52:12;;;;;;;;;;;17.10;53.60;;;;;;5053362;28;20151;-77
2023/06/15 03:54:37;;;;;;;;;;;17.30;53.60;;;;;;5053373;28;19909;-75
2023/06/15 03:57:03;;;;;;;;;;;17.70;53.60;;;;;;5053180;28;19967;-77
2023/06/15 03:59:28;;;;;;;;;;;17.90;54.30;;;;;;5053107;28;19917;-75
2023/06/15 04:01:54;;;;;;;;;;;18.10;54.30;;;;;;5053098;28;19982;-74
2023/06/15 04:04:20;;;;;;;;;;;18.30;54.00;;;;;;5052986;28;20261;-77
2023/06/15 04:06:46;;;;;;;;;;;18.50;53.80;;;;;;5053175;28;20271;-77
2023/06/15 04:09:12;;;;;;;;;;;18.70;53.60;;;;;;5052895;28;19939;-77
2023/06/15 04:11:37;;;;;;;;;;;19.00;53.40;;;;;;5053323;28;19924;-77
2023/06/15 04:14:03;;;;;;;;;;;19.20;52.90;;;;;;5052790;28;19913;-77
2023/06/15 04:16:28;;;;;;;;;;;19.30;52.50;;;;;;5052871;28;19924;-77
2023/06/15 04:18:54;;;;;;;;;;;19.40;52.00;;;;;;5052952;28;19909;-78
2023/06/15 04:21:19;;;;;;;;;;;19.40;51.70;;;;;;5052821;28;20055;-77
2023/06/15 04:23:44;;;;;;;;;;;19.30;51.50;;;;;;5052823;28;19952;-77
2023/06/15 04:26:10;;;;;;;;;;;19.40;51.30;;;;;;5052740;28;19920;-77
2023/06/15 04:28:36;;;;;;;;;;;19.40;51.20;;;;;;5052395;28;19920;-77
2023/06/15 04:31:09;;;;;;;;;;;19.40;51.10;;;;;;5052411;28;20376;-77
2023/06/15 04:33:36;;;;;;;;;;;19.50;51.10;;;;;;5052051;28;20285;-76
2023/06/15 04:36:03;;;;;;;;;;;19.50;51.00;;;;;;5052533;28;19917;-77
2023/06/15 04:38:29;;;;;;;;;;;19.60;51.10;;;;;;5052477;28;20011;-77
2023/06/15 04:40:56;;;;;;;;;;;19.70;51.00;;;;;;5041931;28;19972;-76
2023/06/15 04:43:21;;;;;;;;;;;19.80;50.90;;;;;;5032167;28;20270;-76
2023/06/15 04:45:47;;;;;;;;;;;19.90;50.70;;;;;;5032711;28;19971;-77
2023/06/15 04:48:12;;;;;;;;;;;19.90;50.60;;;;;;5032128;28;20029;-77
2023/06/15 04:50:38;;;;;;;;;;;20.00;50.60;;;;;;5041627;28;19932;-77
2023/06/15 04:53:03;;;;;;;;;;;20.20;50.50;;;;;;5051923;28;20000;-76
2023/06/15 04:55:29;;;;;;;;;;;20.20;50.50;;;;;;5052091;28;19909;-77
2023/06/15 04:57:55;;;;;;;;;;;20.40;50.50;;;;;;5051956;28;19916;-76
2023/06/15 05:00:21;;;;;;;;;;;20.50;50.40;;;;;;5036714;28;20288;-76
2023/06/15 05:02:46;;;;;;;;;;;20.80;50.80;;;;;;5032185;28;20486;-78
2023/06/15 05:05:12;;;;;;;;;;;21.30;51.30;;;;;;5032136;28;19919;-78
2023/06/15 05:07:37;;;;;;;;;;;22.00;51.00;;;;;;5036414;28;19917;-75
2023/06/15 05:10:03;;;;;;;;;;;22.40;49.30;;;;;;5034741;28;19910;-77
2023/06/15 05:12:28;;;;;;;;;;;22.60;47.80;;;;;;5034078;28;20007;-77
2023/06/15 05:14:54;;;;;;;;;;;22.80;47.80;;;;;;5045554;28;20336;-76
2023/06/15 05:17:20;;;;;;;;;;;23.30;48.10;;;;;;5052426;28;19927;-77
2023/06/15 05:19:45;;;;;;;;;;;24.00;47.80;;;;;;5051022;28;20069;-75
2023/06/15 05:22:11;;;;;;;;;;;24.60;47.20;;;;;;5051768;28;19932;-75
2023/06/15 05:24:36;;;;;;;;;;;25.30;46.50;;;;;;5044943;28;19956;-76
2023/06/15 05:27:05;;;;;;;;;;;26.00;45.40;;;;;;5032107;28;19917;-76
2023/06/15 05:29:30;;;;;;;;;;;26.70;44.10;;;;;;5031719;28;20098;-76
2023/06/15 05:31:56;;;;;;;;;;;27.30;42.80;;;;;;5057463;28;20011;-76
2023/06/15 05:34:22;;;;;;;;;;;27.90;41.20;;;;;;5071842;28;19908;-76
2023/06/15 05:36:47;;;;;;;;;;;28.40;40.70;;;;;;5064878;28;19917;-75
2023/06/15 05:39:12;;;;;;;;;;;28.90;39.70;;;;;;5050596;28;19966;-77
2023/06/15 05:41:38;;;;;;;;;;;29.40;38.70;;;;;;5033903;28;19944;-76
2023/06/15 05:44:04;;;;;;;;;;;29.90;38.00;;;;;;5051682;28;20043;-76
2023/06/15 05:46:30;;;;;;;;;;;30.30;37.10;;;;;;5043227;28;19924;-77
2023/06/15 05:48:55;;;;;;;;;;;30.80;35.90;;;;;;5047460;28;19913;-76
2023/06/15 05:51:20;;;;;;;;;;;31.10;35.60;;;;;;5051133;28;19922;-77
2023/06/15 05:53:46;;;;;;;;;;;31.50;34.60;;;;;;5051444;28;20318;-76
2023/06/15 05:56:11;;;;;;;;;;;31.80;34.10;;;;;;5051495;28;20515;-77
2023/06/15 05:58:37;;;;;;;;;;;32.20;33.80;;;;;;5048328;28;19913;-77
2023/06/15 06:01:03;;;;;;;;;;;32.60;33.10;;;;;;5052133;28;20364;-76
2023/06/15 06:03:28;;;;;;;;;;;33.00;32.80;;;;;;5051267;28;19943;-77
2023/06/15 06:05:54;;;;;;;;;;;33.40;32.20;;;;;;5051581;28;19924;-77
2023/06/15 06:08:21;;;;;;;;;;;33.80;31.50;;;;;;5048454;28;19921;-77
2023/06/15 06:10:46;;;;;;;;;;;34.20;30.40;;;;;;5051672;28;19920;-77
2023/06/15 06:13:12;;;;;;;;;;;34.50;30.30;;;;;;5053182;28;19917;-77
2023/06/15 06:15:37;;;;;;;;;;;34.90;29.70;;;;;;5055715;28;19917;-75
2023/06/15 06:18:04;;;;;;;;;;;35.30;29.20;;;;;;5052782;28;19920;-77
2023/06/15 06:20:31;;;;;;;;;;;35.60;28.60;;;;;;5055834;28;19927;-77
2023/06/15 06:22:56;;;;;;;;;;;35.80;28.00;;;;;;5055315;28;19963;-76
2023/06/15 06:25:22;;;;;;;;;;;36.30;27.90;;;;;;5037556;28;19952;-77
2023/06/15 06:27:47;;;;;;;;;;;36.60;27.30;;;;;;5055918;28;19913;-77
2023/06/15 06:30:13;;;;;;;;;;;36.80;26.40;;;;;;5052222;28;19999;-78
2023/06/15 06:32:38;;;;;;;;;;;37.10;26.20;;;;;;5060076;28;20007;-77
2023/06/15 06:35:04;;;;;;;;;;;37.30;26.20;;;;;;5056713;28;19917;-78
2023/06/15 06:37:30;;;;;;;;;;;37.70;26.10;;;;;;5057514;28;19920;-75
2023/06/15 06:39:55;;;;;;;;;;;38.20;25.50;;;;;;5052491;28;20023;-76
2023/06/15 06:42:20;;;;;;;;;;;38.60;25.20;;;;;;5058023;28;19925;-75
2023/06/15 06:44:46;;;;;;;;;;;38.90;23.70;;;;;;5055589;28;19939;-76
2023/06/15 06:47:11;;;;;;;;;;;39.00;23.20;;;;;;5058669;28;20384;-76
2023/06/15 06:49:37;;;;;;;;;;;39.10;22.90;;;;;;5051967;28;19940;-77
2023/06/15 06:52:03;;;;;;;;;;;39.10;22.40;;;;;;5056546;28;19917;-76
2023/06/15 06:54:28;;;;;;;;;;;39.10;22.10;;;;;;5056401;28;20346;-76
2023/06/15 06:56:53;;;;;;;;;;;38.70;21.50;;;;;;5058522;28;19924;-76
2023/06/15 06:59:19;;;;;;;;;;;38.10;22.00;;;;;;5052343;28;19912;-76
2023/06/15 07:01:44;;;;;;;;;;;37.50;22.10;;;;;;5055289;28;20367;-76
2023/06/15 07:04:10;;;;;;;;;;;36.80;22.50;;;;;;5036764;28;19912;-75
2023/06/15 07:06:35;;;;;;;;;;;36.30;23.10;;;;;;5055594;28;19921;-75
2023/06/15 07:09:01;;;;;;;;;;;35.90;23.30;;;;;;5051533;28;20016;-76
2023/06/15 07:11:27;;;;;;;;;;;35.50;23.80;;;;;;5055605;28;19916;-76
2023/06/15 07:13:53;;;;;;;;;;;35.30;24.10;;;;;;5054721;28;19913;-76
2023/06/15 07:16:19;;;;;;;;;;;35.20;24.20;;;;;;5055213;28;19916;-75
2023/06/15 07:18:44;;;;;;;;;;;34.90;24.20;;;;;;5051550;28;20327;-76
2023/06/15 07:21:10;;;;;;;;;;;34.50;24.50;;;;;;5055177;28;19969;-77
2023/06/15 07:23:35;;;;;;;;;;;34.30;24.80;;;;;;5053850;28;19913;-77
2023/06/15 07:26:01;;;;;;;;;;;34.50;25.40;;;;;;5054224;28;20015;-77
2023/06/15 07:28:26;;;;;;;;;;;34.80;25.30;;;;;;5051228;28;19917;-77
2023/06/15 07:30:51;;;;;;;;;;;35.10;25.20;;;;;;5058335;28;19917;-76
2023/06/15 07:33:17;;;;;;;;;;;35.10;24.80;;;;;;5074552;28;19909;-77
2023/06/15 07:35:43;;;;;;;;;;;35.20;25.20;;;;;;5056494;28;19917;-77
2023/06/15 07:38:08;;;;;;;;;;;35.80;25.50;;;;;;5051703;28;19955;-77
2023/06/15 07:40:34;;;;;;;;;;;36.40;25.20;;;;;;5053976;28;19931;-77
2023/06/15 07:42:59;;;;;;;;;;;37.10;24.80;;;;;;5054434;28;20262;-76
2023/06/15 07:45:24;;;;;;;;;;;37.70;24.20;;;;;;5054463;28;20352;-74
2023/06/15 07:47:50;;;;;;;;;;;38.30;23.60;;;;;;5053791;28;20047;-75
2023/06/15 07:50:15;;;;;;;;;;;38.80;22.30;;;;;;5052373;28;19962;-76
2023/06/15 07:52:41;;;;;;;;;;;39.10;21.60;;;;;;5055300;28;19920;-76
2023/06/15 07:55:07;;;;;;;;;;;39.40;21.00;;;;;;5054952;28;19968;-76
2023/06/15 07:57:34;;;;;;;;;;;39.70;20.10;;;;;;5055399;28;19917;-75
2023/06/15 07:59:59;;;;;;;;;;;39.90;19.90;;;;;;5052472;28;19916;-76
2023/06/15 08:02:25;;;;;;;;;;;40.20;19.60;;;;;;5038359;28;20380;-76
2023/06/15 08:04:50;;;;;;;;;;;40.30;18.90;;;;;;5055281;28;19928;-76
2023/06/15 08:07:16;;;;;;;;;;;40.30;18.50;;;;;;5055289;28;19921;-77
2023/06/15 08:09:41;;;;;;;;;;;40.30;18.20;;;;;;5051285;28;19971;-76
2023/06/15 08:12:07;;;;;;;;;;;40.30;17.90;;;;;;5055471;28;19951;-76
2023/06/15 08:14:33;;;;;;;;;;;40.30;17.50;;;;;;5054015;28;20265;-76
2023/06/15 08:16:58;;;;;;;;;;;40.10;17.10;;;;;;5056401;28;20292;-76
2023/06/15 08:19:24;;;;;;;;;;;40.10;17.10;;;;;;5051997;28;20265;-76
2023/06/15 08:21:49;;;;;;;;;;;40.20;17.10;;;;;;5055194;28;19921;-77
2023/06/15 08:24:14;;;;;;;;;;;40.30;17.10;;;;;;5037104;28;20042;-77
2023/06/15 08:26:42;;;;;;;;;;;40.50;17.20;;;;;;5054395;28;19917;-77
2023/06/15 08:29:08;;;;;;;;;;;40.70;16.90;;;;;;5034886;28;19920;-76
2023/06/15 08:31:35;;;;;;;;;;;40.90;16.90;;;;;;5065146;28;19917;-76
2023/06/15 08:34:03;;;;;;;;;;;41.20;16.70;;;;;;5073619;28;19999;-76
2023/06/15 08:36:29;;;;;;;;;;;41.30;16.50;;;;;;5055675;28;20349;-76
2023/06/15 08:38:54;;;;;;;;;;;41.30;16.00;;;;;;5051076;28;19913;-77
2023/06/15 08:41:22;;;;;;;;;;;41.20;15.70;;;;;;5046473;28;20015;-78
2023/06/15 08:43:50;;;;;;;;;;;41.10;15.80;;;;;;5053853;28;19923;-76
2023/06/15 08:46:16;;;;;;;;;;;41.10;15.90;;;;;;5056152;28;20245;-75
2023/06/15 08:48:44;;;;;;;;;;;41.20;15.80;;;;;;5037598;28;19919;-75
2023/06/15 08:51:12;;;;;;;;;;;41.30;15.80;;;;;;5047723;28;20051;-75
2023/06/15 08:53:40;;;;;;;;;;;41.40;15.60;;;;;;5046607;28;20003;-75
2023/06/15 08:56:09;;;;;;;;;;;41.60;15.80;;;;;;5047482;28;19917;-76
2023/06/15 08:58:35;;;;;;;;;;;41.70;15.50;;;;;;5029323;28;19917;-75
2023/06/15 09:01:01;;;;;;;;;;;41.60;15.60;;;;;;5046951;28;20438;-75
2023/06/15 09:03:27;;;;;;;;;;;41.70;15.40;;;;;;5047260;28;19921;-74
2023/06/15 09:05:52;;;;;;;;;;;41.70;15.10;;;;;;5054150;28;19913;-75
2023/06/15 09:08:18;;;;;;;;;;;41.70;15.20;;;;;;5050773;28;19952;-73
2023/06/15 09:10:43;;;;;;;;;;;41.70;14.90;;;;;;5054956;28;19924;-75
2023/06/15 09:13:16;;;;;;;;;;;41.70;14.90;;;;;;5057512;28;20336;-75
2023/06/15 09:15:43;;;;;;;;;;;41.70;15.00;;;;;;5058304;28;20314;-75
2023/06/15 09:18:09;;;;;;;;;;;41.80;15.00;;;;;;5055746;28;19917;-74
2023/06/15 09:20:38;;;;;;;;;;;41.70;14.60;;;;;;5055043;28;19908;-75
2023/06/15 09:23:05;;;;;;;;;;;41.70;14.70;;;;;;5056305;28;19913;-75
2023/06/15 09:25:32;;;;;;;;;;;41.80;14.70;;;;;;5056499;28;19962;-74
2023/06/15 09:27:59;;;;;;;;;;;41.80;14.80;;;;;;5054897;28;19913;-74
2023/06/15 09:30:31;;;;;;;;;;;41.80;14.80;;;;;;5052008;28;19909;-74
2023/06/15 09:32:58;;;;;;;;;;;41.80;14.50;;;;;;5033772;28;20258;-74
2023/06/15 09:35:23;;;;;;;;;;;41.90;14.80;;;;;;5047254;28;19909;-75
2023/06/15 09:37:56;;;;;;;;;;;42.10;14.60;;;;;;5053351;28;19959;-74
2023/06/15 09:40:23;;;;;;;;;;;42.20;14.30;;;;;;5051297;28;19955;-75
2023/06/15 09:42:50;;;;;;;;;;;42.30;13.70;;;;;;5050659;28;20344;-74
2023/06/15 09:45:16;;;;;;;;;;;42.00;13.70;;;;;;5053326;28;19912;-75
2023/06/15 09:47:42;;;;;;;;;;;42.10;14.00;;;;;;5071831;28;19987;-75
2023/06/15 09:50:08;;;;;;;;;;;42.30;13.60;;;;;;5055124;28;19917;-75
2023/06/15 09:52:36;;;;;;;;;;;42.50;13.60;;;;;;5050055;28;20327;-75
2023/06/15 09:55:03;;;;;;;;;;;42.70;13.40;;;;;;5046495;28;19904;-75
2023/06/15 09:57:29;;;;;;;;;;;42.90;13.40;;;;;;5052552;28;19924;-75
2023/06/15 09:59:55;;;;;;;;;;;42.90;12.20;;;;;;5053288;28;20322;-75
2023/06/15 10:02:21;;;;;;;;;;;42.30;12.30;;;;;;5054514;28;20015;-75
2023/06/15 10:04:47;;;;;;;;;;;42.00;12.50;;;;;;5056112;28;19909;-74
2023/06/15 10:07:13;;;;;;;;;;;41.50;12.90;;;;;;5038724;28;20406;-74
2023/06/15 10:09:51;;;;;;;;;;;41.50;13.00;;;;;;5053180;28;19917;-75
2023/06/15 10:12:20;;;;;;;;;;;41.40;12.80;;;;;;5057039;28;20284;-75
2023/06/15 10:14:49;;;;;;;;;;;40.50;12.80;;;;;;5056384;28;19915;-74
2023/06/15 10:17:16;;;;;;;;;;;39.90;13.40;;;;;;5055784;28;20410;-75
2023/06/15 10:19:43;;;;;;;;;;;39.90;13.80;;;;;;5053171;28;19975;-76
2023/06/15 10:22:16;;;;;;;;;;;40.30;13.90;;;;;;5056194;28;19943;-76
2023/06/15 10:24:42;;;;;;;;;;;40.80;13.90;;;;;;5066212;28;19919;-75
2023/06/15 10:27:07;;;;;;;;;;;41.30;13.50;;;;;;5055897;28;20422;-75
2023/06/15 10:29:38;;;;;;;;;;;41.10;13.00;;;;;;5052360;28;19916;-75
2023/06/15 10:32:20;;;;;;;;;;;40.50;13.00;;;;;;5068655;28;19921;-75
2023/06/15 10:34:49;;;;;;;;;;;40.00;13.50;;;;;;5066395;28;19970;-75
2023/06/15 10:37:27;;;;;;;;;;;40.20;13.90;;;;;;5055525;28;19924;-74
2023/06/15 10:39:54;;;;;;;;;;;40.30;13.70;;;;;;5051614;28;19913;-75
2023/06/15 10:42:20;;;;;;;;;;;40.40;13.50;;;;;;5053791;28;19927;-74
2023/06/15 10:44:45;;;;;;;;;;;40.60;13.60;;;;;;5054512;28;19916;-74
2023/06/15 10:47:19;;;;;;;;;;;40.80;13.70;;;;;;5055584;28;19971;-75
2023/06/15 10:49:52;;;;;;;;;;;41.30;13.80;;;;;;5051783;28;19937;-75
2023/06/15 10:52:17;;;;;;;;;;;41.80;13.50;;;;;;5055419;28;20380;-74
2023/06/15 10:54:43;;;;;;;;;;;42.10;13.20;;;;;;5048982;28;19908;-75
2023/06/15 10:57:08;;;;;;;;;;;42.40;13.20;;;;;;5055161;28;20356;-75
2023/06/15 10:59:43;;;;;;;;;;;42.70;12.80;;;;;;5050502;28;19920;-76
2023/06/15 11:02:27;;;;;;;;;;;42.50;12.30;;;;;;5054790;28;19944;-75
2023/06/15 11:04:53;;;;;;;;;;;41.90;12.70;;;;;;5053176;28;20383;-75
2023/06/15 11:07:28;;;;;;;;;;;41.60;12.80;;;;;;5055258;28;19917;-74
2023/06/15 11:09:57;;;;;;;;;;;41.10;12.90;;;;;;5050946;28;19954;-76
2023/06/15 11:12:32;;;;;;;;;;;40.80;13.30;;;;;;5054944;28;19916;-76
2023/06/15 11:14:59;;;;;;;;;;;40.60;13.60;;;;;;5054283;28;20399;-75
2023/06/15 11:17:25;;;;;;;;;;;40.50;13.80;;;;;;5055104;28;19976;-76
2023/06/15 11:19:50;;;;;;;;;;;40.60;13.80;;;;;;5050452;28;20011;-73
2023/06/15 11:22:25;;;;;;;;;;;40.80;13.90;;;;;;5054925;28;20428;-76
2023/06/15 11:24:53;;;;;;;;;;;41.30;13.60;;;;;;5053608;28;20105;-76
2023/06/15 11:27:20;;;;;;;;;;;41.70;12.90;;;;;;5054645;28;19940;-76
2023/06/15 11:29:46;;;;;;;;;;;41.80;12.20;;;;;;5050534;28;19909;-77
2023/06/15 11:32:13;;;;;;;;;;;41.80;11.80;;;;;;5068831;28;20276;-76
2023/06/15 11:34:39;;;;;;;;;;;41.40;12.10;;;;;;5066023;28;19909;-74
2023/06/15 11:37:05;;;;;;;;;;;41.30;12.10;;;;;;5054005;28;20303;-77
2023/06/15 11:39:31;;;;;;;;;;;40.80;12.20;;;;;;5050135;28;19990;-77
2023/06/15 11:41:57;;;;;;;;;;;40.30;12.10;;;;;;5053669;28;19921;-75
2023/06/15 11:44:24;;;;;;;;;;;39.50;12.50;;;;;;5053061;28;20003;-75
2023/06/15 11:46:53;;;;;;;;;;;38.90;13.00;;;;;;5053940;28;20003;-76
2023/06/15 11:49:18;;;;;;;;;;;38.70;13.30;;;;;;5049921;28;19909;-76
2023/06/15 11:51:47;;;;;;;;;;;38.80;13.40;;;;;;5053758;28;20008;-76
2023/06/15 11:54:13;;;;;;;;;;;38.90;13.40;;;;;;5053106;28;20398;-78
2023/06/15 11:56:45;;;;;;;;;;;39.10;13.30;;;;;;5053179;28;20011;-76
2023/06/15 11:59:12;;;;;;;;;;;39.20;13.60;;;;;;5049786;28;19917;-77
2023/06/15 12:01:37;;;;;;;;;;;39.40;13.20;;;;;;5053066;28;19917;-77
2023/06/15 12:04:10;;;;;;;;;;;39.50;13.30;;;;;;5052541;28;20191;-77
2023/06/15 12:06:35;;;;;;;;;;;39.60;13.40;;;;;;5053337;28;19923;-78
2023/06/15 12:09:01;;;;;;;;;;;39.70;13.10;;;;;;5049482;28;20295;-76
2023/06/15 12:11:26;;;;;;;;;;;39.60;13.10;;;;;;5052158;28;19924;-77
2023/06/15 12:13:52;;;;;;;;;;;39.80;13.20;;;;;;5052474;28;20753;-76
2023/06/15 12:16:17;;;;;;;;;;;39.80;13.00;;;;;;5053015;28;19916;-77
2023/06/15 12:18:43;;;;;;;;;;;39.30;13.20;;;;;;5049703;28;20321;-77
2023/06/15 12:21:08;;;;;;;;;;;38.80;13.40;;;;;;5052237;28;20058;-77
2023/06/15 12:23:34;;;;;;;;;;;38.30;13.70;;;;;;5052397;28;19913;-76
2023/06/15 12:26:00;;;;;;;;;;;38.00;14.10;;;;;;5052491;28;19923;-76
2023/06/15 12:28:26;;;;;;;;;;;38.00;14.40;;;;;;5050939;28;20361;-77
2023/06/15 12:30:56;;;;;;;;;;;38.30;14.30;;;;;;5054620;28;20455;-77
2023/06/15 12:33:24;;;;;;;;;;;38.30;13.90;;;;;;5073418;28;20383;-76
2023/06/15 12:35:50;;;;;;;;;;;38.30;14.00;;;;;;5054737;28;19924;-76
2023/06/15 12:38:15;;;;;;;;;;;38.40;14.30;;;;;;5050693;28;20280;-77
2023/06/15 12:40:43;;;;;;;;;;;38.30;14.40;;;;;;5050341;28;19982;-77
2023/06/15 12:43:09;;;;;;;;;;;37.60;14.40;;;;;;5052074;28;19994;-76
2023/06/15 12:45:34;;;;;;;;;;;37.10;14.80;;;;;;5052058;28;19909;-75
2023/06/15 12:48:00;;;;;;;;;;;36.80;15.00;;;;;;5050674;28;19916;-76
2023/06/15 12:50:28;;;;;;;;;;;36.60;15.30;;;;;;5050494;28;19909;-76
2023/06/15 12:52:55;;;;;;;;;;;36.70;15.30;;;;;;5050823;28;19917;-76
2023/06/15 12:55:20;;;;;;;;;;;36.60;15.30;;;;;;5051685;28;19959;-77
2023/06/15 12:57:46;;;;;;;;;;;36.50;15.30;;;;;;5052125;28;20368;-78
2023/06/15 13:00:12;;;;;;;;;;;36.70;15.40;;;;;;5048244;28;20376;-77
2023/06/15 13:02:39;;;;;;;;;;;36.70;15.30;;;;;;5050773;28;19955;-77
2023/06/15 13:05:05;;;;;;;;;;;36.70;15.20;;;;;;5051598;28;19916;-77
2023/06/15 13:07:32;;;;;;;;;;;36.70;15.00;;;;;;5052346;28;19917;-78
2023/06/15 13:09:58;;;;;;;;;;;36.90;15.30;;;;;;5048384;28;20319;-77
2023/06/15 13:12:25;;;;;;;;;;;37.30;15.10;;;;;;5052264;28;20335;-78
2023/06/15 13:14:51;;;;;;;;;;;37.50;14.50;;;;;;5051360;28;20280;-77
2023/06/15 13:17:16;;;;;;;;;;;37.30;14.50;;;;;;5051989;28;19928;-77
2023/06/15 13:19:41;;;;;;;;;;;37.30;14.70;;;;;;5041683;28;19918;-77
2023/06/15 13:22:07;;;;;;;;;;;37.30;14.70;;;;;;5051673;28;20372;-79
2023/06/15 13:24:34;;;;;;;;;;;37.30;14.60;;;;;;5051280;28;19909;-78
2023/06/15 13:27:01;;;;;;;;;;;37.20;14.80;;;;;;5051996;28;19917;-77
2023/06/15 13:29:26;;;;;;;;;;;37.00;14.80;;;;;;5047720;28;19909;-78
2023/06/15 13:31:52;;;;;;;;;;;37.10;15.10;;;;;;5070095;28;19921;-77
2023/06/15 13:34:17;;;;;;;;;;;37.30;15.00;;;;;;5066456;28;19913;-77
2023/06/15 13:36:43;;;;;;;;;;;37.60;14.90;;;;;;5051758;28;19928;-77
2023/06/15 13:39:09;;;;;;;;;;;37.60;14.80;;;;;;5030116;28;19909;-77
2023/06/15 13:41:34;;;;;;;;;;;37.30;14.80;;;;;;5051484;28;19921;-77
2023/06/15 13:44:00;;;;;;;;;;;36.70;15.00;;;;;;5050662;28;20011;-77
2023/06/15 13:46:27;;;;;;;;;;;36.30;15.50;;;;;;5050866;28;22446;-77
2023/06/15 13:48:54;;;;;;;;;;;36.30;15.70;;;;;;5046323;28;19913;-77
2023/06/15 13:51:19;;;;;;;;;;;36.00;15.60;;;;;;5051301;28;19917;-77
2023/06/15 13:53:45;;;;;;;;;;;35.90;15.60;;;;;;5051241;28;19916;-77
2023/06/15 13:56:10;;;;;;;;;;;35.90;15.70;;;;;;5051259;28;20272;-78
2023/06/15 13:58:36;;;;;;;;;;;35.80;15.70;;;;;;5048573;28;19912;-77
2023/06/15 14:01:01;;;;;;;;;;;35.80;15.70;;;;;;5048910;28;19951;-78
2023/06/15 14:03:27;;;;;;;;;;;35.80;15.90;;;;;;5051094;28;19913;-78
2023/06/15 14:05:53;;;;;;;;;;;35.90;15.90;;;;;;5050642;28;20374;-78
2023/06/15 14:08:18;;;;;;;;;;;36.10;15.70;;;;;;5048550;28;19960;-77
2023/06/15 14:10:44;;;;;;;;;;;36.20;15.80;;;;;;5048636;28;19921;-77